createdAt,value
2022-08-09T00:00:17.325Z,18.90
2022-08-09T00:02:49.230Z,19.00
2022-08-09T00:06:18.831Z,19.00
2022-08-09T00:08:31.299Z,19.00
2022-08-09T00:11:05.919Z,19.00
2022-08-09T00:13:51.442Z,19.00
2022-08-09T00:16:25.980Z,19.00
2022-08-09T00:19:10.177Z,19.00
2022-08-09T00:21:43.163Z,19.00
2022-08-09T00:24:27.225Z,19.00
2022-08-09T00:26:57.602Z,19.00
2022-08-09T00:30:09.902Z,19.00
2022-08-09T00:32:26.808Z,18.90
2022-08-09T00:34:56.977Z,19.00
2022-08-09T00:37:32.246Z,19.00
2022-08-09T00:40:13.263Z,19.00
2022-08-09T00:44:16.633Z,19.00
2022-08-09T00:45:36.021Z,18.90
2022-08-09T00:48:06.718Z,18.90
2022-08-09T00:50:37.758Z,18.80
2022-08-09T00:53:10.349Z,18.80
2022-08-09T00:56:04.027Z,18.80
2022-08-09T00:58:34.593Z,19.00
2022-08-09T01:01:11.111Z,19.00
2022-08-09T01:03:57.408Z,19.00
2022-08-09T01:06:54.215Z,18.90
2022-08-09T01:09:37.149Z,18.80
2022-08-09T01:12:19.269Z,18.70
2022-08-09T01:15:05.842Z,18.80
2022-08-09T01:17:57.723Z,18.70
2022-08-09T01:20:44.361Z,18.70
2022-08-09T01:24:02.179Z,18.60
2022-08-09T01:27:07.750Z,18.60
2022-08-09T01:29:56.432Z,18.60
2022-08-09T01:32:34.791Z,18.60
2022-08-09T01:35:29.177Z,18.50
2022-08-09T01:38:14.831Z,18.60
2022-08-09T01:40:53.033Z,18.50
2022-08-09T01:43:41.920Z,18.50
2022-08-09T01:46:26.465Z,18.50
2022-08-09T01:49:10.195Z,18.50
2022-08-09T01:51:54.291Z,18.50
2022-08-09T01:54:32.870Z,18.40
2022-08-09T01:57:08.733Z,18.40
2022-08-09T01:59:51.819Z,18.40
2022-08-09T02:02:31.028Z,18.40
2022-08-09T02:05:15.332Z,18.30
2022-08-09T02:08:40.229Z,18.30
2022-08-09T02:10:51.258Z,18.40
2022-08-09T02:13:26.128Z,18.40
2022-08-09T02:16:12.533Z,18.40
2022-08-09T02:18:47.843Z,18.40
2022-08-09T02:21:24.390Z,18.30
2022-08-09T02:24:01.964Z,18.30
2022-08-09T02:26:35.620Z,18.20
2022-08-09T02:29:17.365Z,18.20
2022-08-09T02:31:51.013Z,18.20
2022-08-09T02:34:41.295Z,18.20
2022-08-09T02:37:24.094Z,18.20
2022-08-09T02:40:13.518Z,18.30
2022-08-09T02:42:52.008Z,18.20
2022-08-09T02:45:29.741Z,18.20
2022-08-09T02:48:12.344Z,18.20
2022-08-09T02:51:01.772Z,18.20
2022-08-09T02:53:38.477Z,18.10
2022-08-09T02:56:15.013Z,18.20
2022-08-09T02:58:46.553Z,18.20
2022-08-09T03:01:21.918Z,18.20
2022-08-09T03:04:19.423Z,18.20
2022-08-09T03:06:49.949Z,18.20
2022-08-09T03:09:21.542Z,18.10
2022-08-09T03:12:06.716Z,18.10
2022-08-09T03:14:41.651Z,18.00
2022-08-09T03:17:16.556Z,18.00
2022-08-09T03:19:58.712Z,18.00
2022-08-09T03:22:41.700Z,18.00
2022-08-09T03:25:26.603Z,18.00
2022-08-09T03:28:11.093Z,18.00
2022-08-09T03:30:43.425Z,18.00
2022-08-09T03:33:19.133Z,18.10
2022-08-09T03:36:15.816Z,18.10
2022-08-09T03:38:43.494Z,18.10
2022-08-09T03:41:16.532Z,18.10
2022-08-09T03:44:03.535Z,18.10
2022-08-09T03:46:36.232Z,18.10
2022-08-09T03:49:08.668Z,18.10
2022-08-09T03:51:58.458Z,18.20
2022-08-09T03:54:34.428Z,18.10
2022-08-09T03:57:18.429Z,18.10
2022-08-09T03:59:54.128Z,18.20
2022-08-09T04:02:30.519Z,18.10
2022-08-09T04:05:06.574Z,18.20
2022-08-09T04:07:52.502Z,18.20
2022-08-09T04:10:28.946Z,18.20
2022-08-09T04:13:03.938Z,18.10
2022-08-09T04:15:51.992Z,18.10
2022-08-09T04:18:25.042Z,18.10
2022-08-09T04:20:54.998Z,18.10
2022-08-09T04:23:25.823Z,18.20
2022-08-09T04:25:56.111Z,18.20
2022-08-09T04:28:33.300Z,18.20
2022-08-09T04:31:08.551Z,18.20
2022-08-09T04:33:53.240Z,18.20
2022-08-09T04:36:30.126Z,18.20
2022-08-09T04:39:03.422Z,18.20
2022-08-09T04:41:33.924Z,18.20
2022-08-09T04:44:14.385Z,18.30
2022-08-09T04:46:58.314Z,18.30
2022-08-09T04:49:53.631Z,18.40
2022-08-09T04:52:27.001Z,18.40
2022-08-09T04:55:04.756Z,18.40
2022-08-09T04:57:54.250Z,18.30
2022-08-09T05:00:31.769Z,18.30
2022-08-09T05:03:30.153Z,18.30
2022-08-09T05:06:06.831Z,18.30
2022-08-09T05:08:36.582Z,18.30
2022-08-09T05:11:07.840Z,18.40
2022-08-09T05:13:38.795Z,18.40
2022-08-09T05:16:09.035Z,18.40
2022-08-09T05:18:57.520Z,18.50
2022-08-09T05:21:30.018Z,18.50
2022-08-09T05:24:06.828Z,18.50
2022-08-09T05:26:45.963Z,18.50
2022-08-09T05:29:22.015Z,18.60
2022-08-09T05:31:58.508Z,18.70
2022-08-09T05:34:30.900Z,18.60
2022-08-09T05:37:05.263Z,18.70
2022-08-09T05:39:42.610Z,18.80
2022-08-09T05:42:17.742Z,18.90
2022-08-09T05:44:52.270Z,19.00
2022-08-09T05:47:23.700Z,19.00
2022-08-09T05:50:31.137Z,19.10
2022-08-09T05:52:53.493Z,19.20
2022-08-09T05:55:24.271Z,19.30
2022-08-09T05:57:56.662Z,19.30
2022-08-09T06:00:29.522Z,19.40
2022-08-09T06:02:59.666Z,19.60
2022-08-09T06:05:31.186Z,19.60
2022-08-09T06:08:24.693Z,19.60
2022-08-09T06:10:55.450Z,19.60
2022-08-09T06:13:28.418Z,19.60
2022-08-09T06:16:05.047Z,19.70
2022-08-09T06:18:35.301Z,19.90
2022-08-09T06:21:06.781Z,20.00
2022-08-09T06:23:58.051Z,20.20
2022-08-09T06:26:28.513Z,20.20
2022-08-09T06:29:05.126Z,20.10
2022-08-09T06:31:40.329Z,20.30
2022-08-09T06:34:26.383Z,20.20
2022-08-09T06:37:00.206Z,20.40
2022-08-09T06:39:49.238Z,20.50
2022-08-09T06:42:20.295Z,20.70
2022-08-09T06:44:55.467Z,20.70
2022-08-09T06:47:29.955Z,20.80
2022-08-09T06:50:16.718Z,20.90
2022-08-09T06:52:49.078Z,21.20
2022-08-09T06:55:23.051Z,21.30
2022-08-09T06:58:02.721Z,21.30
2022-08-09T07:00:56.410Z,21.50
2022-08-09T07:03:27.979Z,21.90
2022-08-09T07:06:04.792Z,22.00
2022-08-09T07:08:37.391Z,22.20
2022-08-09T07:11:12.458Z,22.30
2022-08-09T07:13:45.055Z,22.40
2022-08-09T07:16:41.579Z,22.60
2022-08-09T07:19:22.873Z,22.80
2022-08-09T07:21:55.935Z,22.70
2022-08-09T07:24:32.577Z,22.30
2022-08-09T07:27:11.080Z,22.30
2022-08-09T07:29:58.373Z,22.10
2022-08-09T07:32:32.010Z,22.10
2022-08-09T07:35:02.722Z,22.20
2022-08-09T07:37:43.444Z,22.30
2022-08-09T07:40:18.864Z,22.20
2022-08-09T07:42:51.523Z,22.20
2022-08-09T07:45:39.882Z,22.30
2022-08-09T07:48:25.850Z,22.40
2022-08-09T07:51:09.329Z,22.50
2022-08-09T07:54:05.414Z,22.60
2022-08-09T07:56:38.874Z,22.60
2022-08-09T07:59:24.931Z,22.70
2022-08-09T08:01:56.050Z,22.70
2022-08-09T08:04:32.233Z,22.60
2022-08-09T08:07:15.121Z,22.60
2022-08-09T08:10:12.031Z,22.60
2022-08-09T08:12:45.233Z,22.50
2022-08-09T08:15:18.122Z,22.60
2022-08-09T08:17:58.267Z,22.70
2022-08-09T08:20:32.685Z,22.90
2022-08-09T08:23:17.154Z,23.00
2022-08-09T08:25:50.456Z,23.00
2022-08-09T08:28:25.666Z,23.10
2022-08-09T08:31:10.407Z,23.20
2022-08-09T08:33:52.329Z,23.30
2022-08-09T08:36:28.996Z,23.40
2022-08-09T08:39:00.471Z,23.50
2022-08-09T08:41:50.750Z,23.60
2022-08-09T08:44:23.144Z,23.80
2022-08-09T08:47:04.865Z,23.80
2022-08-09T08:49:48.310Z,23.90
2022-08-09T08:55:13.703Z,23.90
2022-08-09T08:57:57.633Z,24.00
2022-08-09T09:00:30.470Z,24.20
2022-08-09T09:03:11.850Z,24.40
2022-08-09T09:05:59.838Z,24.30
2022-08-09T09:08:41.123Z,24.20
2022-08-09T09:11:13.552Z,24.10
2022-08-09T09:13:56.933Z,24.30
2022-08-09T09:16:32.276Z,24.50
2022-08-09T09:22:07.883Z,24.70
2022-08-09T09:24:44.819Z,24.50
2022-08-09T09:28:04.499Z,24.60
2022-08-09T09:33:13.673Z,24.60
2022-08-09T09:36:01.865Z,24.50
2022-08-09T09:38:48.264Z,24.70
2022-08-09T09:41:49.259Z,24.90
2022-08-09T09:44:27.776Z,25.20
2022-08-09T09:47:09.145Z,25.20
2022-08-09T09:50:07.483Z,25.20
2022-08-09T09:52:35.872Z,25.30
2022-08-09T09:55:24.286Z,25.60
2022-08-09T09:58:16.734Z,25.80
2022-08-09T10:00:54.736Z,25.80
2022-08-09T10:03:56.391Z,25.70
2022-08-09T10:06:32.484Z,25.60
2022-08-09T10:09:11.847Z,25.70
2022-08-09T10:12:07.841Z,25.60
2022-08-09T10:14:43.965Z,25.70
2022-08-09T10:17:40.560Z,25.40
2022-08-09T10:20:32.847Z,25.60
2022-08-09T10:23:20.415Z,25.80
2022-08-09T10:26:07.219Z,25.90
2022-08-09T10:28:41.858Z,25.90
2022-08-09T10:34:32.303Z,26.10
2022-08-09T10:36:57.850Z,26.00
2022-08-09T10:39:28.922Z,25.90
2022-08-09T10:41:57.887Z,25.90
2022-08-09T10:44:31.677Z,25.50
2022-08-09T10:48:13.471Z,25.30
2022-08-09T10:50:49.416Z,25.40
2022-08-09T10:53:46.937Z,25.40
2022-08-09T10:56:25.614Z,25.50
2022-08-09T10:58:56.385Z,26.00
2022-08-09T11:03:13.092Z,26.40
2022-08-09T11:04:33.711Z,26.50
2022-08-09T11:07:58.230Z,27.00
2022-08-09T11:10:57.794Z,27.40
2022-08-09T11:13:51.106Z,27.50
2022-08-09T11:16:40.750Z,27.40
2022-08-09T11:19:11.513Z,27.10
2022-08-09T11:22:10.685Z,26.70
2022-08-09T11:25:09.862Z,26.50
2022-08-09T11:28:04.791Z,26.10
2022-08-09T11:30:38.201Z,26.40
2022-08-09T11:33:26.501Z,26.60
2022-08-09T11:35:59.837Z,26.90
2022-08-09T11:38:33.957Z,26.90
2022-08-09T11:41:37.642Z,27.20
2022-08-09T11:44:10.064Z,27.60
2022-08-09T11:46:58.214Z,27.60
2022-08-09T11:50:55.534Z,28.00
2022-08-09T11:53:58.915Z,28.00
2022-08-09T11:56:41.318Z,27.70
2022-08-09T11:59:30.617Z,27.70
2022-08-09T12:02:35.190Z,27.30
2022-08-09T12:04:58.710Z,27.30
2022-08-09T12:07:34.424Z,27.20
2022-08-09T12:10:14.459Z,26.90
2022-08-09T12:13:03.603Z,26.80
2022-08-09T12:15:52.798Z,26.60
2022-08-09T12:18:30.098Z,26.40
2022-08-09T12:21:02.788Z,26.20
2022-08-09T12:23:57.915Z,26.10
2022-08-09T12:26:26.348Z,26.00
2022-08-09T12:29:29.784Z,26.30
2022-08-09T12:31:58.688Z,26.70
2022-08-09T12:34:37.588Z,27.30
2022-08-09T12:37:21.614Z,27.60
2022-08-09T12:40:09.575Z,27.90
2022-08-09T12:42:44.421Z,28.10
2022-08-09T12:45:33.951Z,27.70
2022-08-09T12:48:10.873Z,27.30
2022-08-09T12:50:51.173Z,26.70
2022-08-09T12:53:36.951Z,26.60
2022-08-09T12:56:43.964Z,26.50
2022-08-09T12:59:12.286Z,26.50
2022-08-09T13:01:49.731Z,26.40
2022-08-09T13:04:36.994Z,26.40
2022-08-09T13:07:16.656Z,26.30
2022-08-09T13:09:55.193Z,26.50
2022-08-09T13:12:25.166Z,26.50
2022-08-09T13:14:54.981Z,26.60
2022-08-09T13:18:02.703Z,26.50
2022-08-09T13:20:22.763Z,26.80
2022-08-09T13:23:05.462Z,26.90
2022-08-09T13:25:53.256Z,27.10
2022-08-09T13:28:35.512Z,27.40
2022-08-09T13:32:14.906Z,27.50
2022-08-09T13:34:00.304Z,27.60
2022-08-09T13:36:40.826Z,27.50
2022-08-09T13:41:46.064Z,27.30
2022-08-09T13:42:03.747Z,27.00
2022-08-09T13:44:34.628Z,27.00
2022-08-09T13:47:29.477Z,27.10
2022-08-09T13:49:58.049Z,27.30
2022-08-09T13:52:31.959Z,27.50
2022-08-09T13:55:04.985Z,27.30
2022-08-09T13:57:39.815Z,27.60
2022-08-09T14:00:15.459Z,27.30
2022-08-09T14:03:03.863Z,27.00
2022-08-09T14:05:58.554Z,26.60
2022-08-09T14:08:28.370Z,26.40
2022-08-09T14:10:59.374Z,26.20
2022-08-09T14:14:24.822Z,26.20
2022-08-09T14:16:28.068Z,26.20
2022-08-09T14:18:58.172Z,26.30
2022-08-09T14:21:29.725Z,26.30
2022-08-09T14:24:05.493Z,26.30
2022-08-09T14:26:39.975Z,26.30
2022-08-09T14:29:25.709Z,26.30
2022-08-09T14:32:05.985Z,26.40
2022-08-09T14:34:41.169Z,26.40
2022-08-09T14:37:11.939Z,26.40
2022-08-09T14:39:47.802Z,26.60
2022-08-09T14:42:28.869Z,26.80
2022-08-09T14:46:39.141Z,27.00
2022-08-09T14:48:02.413Z,27.30
2022-08-09T14:50:36.879Z,27.20
2022-08-09T14:53:12.017Z,26.90
2022-08-09T14:55:49.837Z,26.50
2022-08-09T14:58:19.768Z,26.40
2022-08-09T15:00:51.319Z,26.40
2022-08-09T15:03:21.955Z,26.40
2022-08-09T15:05:55.635Z,26.40
2022-08-09T15:08:30.414Z,26.50
2022-08-09T15:11:00.891Z,26.60
2022-08-09T15:13:48.355Z,26.70
2022-08-09T15:16:20.803Z,26.60
2022-08-09T15:18:49.900Z,26.50
2022-08-09T15:21:56.828Z,26.50
2022-08-09T15:24:19.173Z,26.50
2022-08-09T15:26:55.362Z,26.60
2022-08-09T15:30:55.475Z,26.70
2022-08-09T15:32:29.414Z,26.90
2022-08-09T15:35:01.007Z,27.00
2022-08-09T15:37:55.962Z,27.00
2022-08-09T15:40:32.411Z,27.20
2022-08-09T15:43:02.723Z,27.20
2022-08-09T15:46:07.439Z,27.20
2022-08-09T15:48:29.372Z,27.20
2022-08-09T15:51:00.862Z,27.00
2022-08-09T15:54:04.527Z,26.80
2022-08-09T15:56:28.503Z,26.70
2022-08-09T15:58:59.895Z,26.60
2022-08-09T16:01:31.458Z,26.60
2022-08-09T16:04:04.660Z,26.50
2022-08-09T16:06:35.554Z,26.30
2022-08-09T16:09:07.299Z,26.20
2022-08-09T16:11:37.595Z,26.20
2022-08-09T16:14:07.925Z,26.10
2022-08-09T16:16:38.941Z,26.00
2022-08-09T16:19:08.997Z,25.90
2022-08-09T16:21:38.196Z,25.90
2022-08-09T16:24:19.933Z,25.90
2022-08-09T16:26:59.516Z,25.90
2022-08-09T16:29:37.423Z,26.10
2022-08-09T16:32:20.066Z,26.20
2022-08-09T16:34:58.431Z,26.10
2022-08-09T16:37:53.107Z,26.20
2022-08-09T16:40:30.020Z,26.40
2022-08-09T16:43:10.793Z,26.70
2022-08-09T16:45:44.383Z,27.10
2022-08-09T16:48:42.731Z,27.30
2022-08-09T16:51:07.659Z,27.50
2022-08-09T16:53:47.204Z,27.50
2022-08-09T16:56:27.028Z,27.40
2022-08-09T16:59:10.200Z,27.20
2022-08-09T17:01:43.848Z,27.10
2022-08-09T17:04:25.885Z,26.90
2022-08-09T17:08:46.353Z,26.80
2022-08-09T17:09:47.929Z,26.80
2022-08-09T17:12:19.644Z,27.10
2022-08-09T17:14:54.938Z,27.10
2022-08-09T17:17:27.895Z,27.00
2022-08-09T17:20:28.898Z,26.90
2022-08-09T17:22:50.183Z,26.80
2022-08-09T17:25:21.985Z,26.30
2022-08-09T17:27:54.004Z,25.90
2022-08-09T17:30:28.258Z,25.70
2022-08-09T17:33:01.405Z,25.60
2022-08-09T17:35:41.352Z,25.70
2022-08-09T17:38:32.126Z,25.60
2022-08-09T17:41:02.878Z,25.50
2022-08-09T17:43:36.986Z,25.60
2022-08-09T17:46:09.953Z,25.70
2022-08-09T17:48:51.870Z,25.80
2022-08-09T17:51:22.488Z,25.80
2022-08-09T17:53:55.796Z,25.50
2022-08-09T17:56:35.177Z,25.10
2022-08-09T17:59:11.562Z,25.00
2022-08-09T18:02:06.401Z,24.80
2022-08-09T18:04:38.624Z,24.80
2022-08-09T18:07:09.044Z,24.60
2022-08-09T18:10:04.226Z,24.50
2022-08-09T18:13:38.977Z,24.40
2022-08-09T18:15:50.348Z,24.30
2022-08-09T18:18:25.584Z,24.20
2022-08-09T18:21:11.612Z,24.10
2022-08-09T18:24:09.514Z,24.00
2022-08-09T18:26:33.827Z,23.90
2022-08-09T18:30:39.436Z,23.80
2022-08-09T18:31:56.361Z,23.70
2022-08-09T18:34:29.122Z,23.60
2022-08-09T18:36:58.045Z,23.50
2022-08-09T18:39:32.790Z,23.40
2022-08-09T18:42:08.773Z,23.40
2022-08-09T18:44:38.112Z,23.20
2022-08-09T18:47:15.895Z,23.10
2022-08-09T18:49:47.286Z,23.00
2022-08-09T18:52:28.521Z,22.90
2022-08-09T18:55:04.310Z,22.90
2022-08-09T18:57:43.209Z,22.80
2022-08-09T19:00:20.223Z,22.70
2022-08-09T19:02:50.951Z,22.60
2022-08-09T19:05:48.953Z,22.50
2022-08-09T19:08:18.262Z,22.50
2022-08-09T19:10:49.197Z,22.40
2022-08-09T19:13:23.154Z,22.30
2022-08-09T19:16:09.181Z,22.20
2022-08-09T19:18:43.746Z,22.10
2022-08-09T19:21:15.782Z,22.10
2022-08-09T19:24:33.205Z,22.00
2022-08-09T19:26:37.724Z,22.00
2022-08-09T19:29:17.684Z,21.90
2022-08-09T19:31:51.734Z,21.80
2022-08-09T19:34:24.566Z,21.80
2022-08-09T19:36:58.197Z,21.80
2022-08-09T19:40:02.667Z,21.70
2022-08-09T19:42:19.204Z,21.50
2022-08-09T19:44:51.215Z,21.50
2022-08-09T19:47:23.712Z,21.40
2022-08-09T19:50:49.757Z,21.40
2022-08-09T19:52:51.607Z,21.40
2022-08-09T19:55:30.813Z,21.30
2022-08-09T19:58:15.890Z,21.30
2022-08-09T20:00:47.341Z,21.30
2022-08-09T20:04:18.549Z,21.20
2022-08-09T20:06:10.568Z,21.20
2022-08-09T20:08:56.737Z,21.20
2022-08-09T20:11:27.338Z,21.10
2022-08-09T20:14:15.432Z,21.10
2022-08-09T20:16:53.727Z,21.10
2022-08-09T20:19:49.236Z,21.00
2022-08-09T20:22:13.989Z,20.90
2022-08-09T20:24:54.325Z,20.80
2022-08-09T20:27:23.981Z,20.70
2022-08-09T20:29:53.281Z,20.70
2022-08-09T20:32:42.075Z,20.60
2022-08-09T20:35:12.186Z,20.50
2022-08-09T20:38:22.293Z,20.50
2022-08-09T20:40:35.318Z,20.50
2022-08-09T20:43:18.899Z,20.40
2022-08-09T20:46:00.753Z,20.40
2022-08-09T20:48:42.801Z,20.30
2022-08-09T20:51:19.341Z,20.30
2022-08-09T20:53:49.103Z,20.30
2022-08-09T20:56:22.070Z,20.20
2022-08-09T20:58:58.831Z,20.20
2022-08-09T21:01:34.420Z,20.10
2022-08-09T21:05:54.407Z,20.10
2022-08-09T21:07:12.503Z,20.10
2022-08-09T21:09:55.613Z,20.00
2022-08-09T21:15:23.582Z,19.90
2022-08-09T21:18:20.928Z,19.90
2022-08-09T21:20:54.112Z,19.80
2022-08-09T21:23:26.498Z,19.70
2022-08-09T21:26:12.523Z,19.60
2022-08-09T21:28:55.804Z,19.60
2022-08-09T21:31:49.138Z,19.60
2022-08-09T21:34:21.137Z,19.50
2022-08-09T21:36:58.442Z,19.50
2022-08-09T21:39:28.190Z,19.40
2022-08-09T21:42:11.839Z,19.40
2022-08-09T21:44:42.850Z,19.40
2022-08-09T21:47:18.093Z,19.40
2022-08-09T21:49:48.279Z,19.30
2022-08-09T21:52:21.026Z,19.30
2022-08-09T21:54:59.572Z,19.30
2022-08-09T21:57:39.532Z,19.30
2022-08-09T22:00:32.477Z,19.20
2022-08-09T22:03:05.950Z,19.10
2022-08-09T22:05:41.927Z,19.10
2022-08-09T22:08:15.392Z,19.10
2022-08-09T22:11:49.498Z,19.10
2022-08-09T22:13:39.360Z,19.00
2022-08-09T22:16:13.772Z,18.90
2022-08-09T22:18:52.880Z,18.90
2022-08-09T22:21:27.397Z,18.80
2022-08-09T22:24:01.113Z,18.70
2022-08-09T22:26:35.143Z,18.80
2022-08-09T22:29:09.990Z,18.80
2022-08-09T22:31:50.525Z,18.70
2022-08-09T22:34:26.884Z,18.60
2022-08-09T22:36:56.710Z,18.60
2022-08-09T22:39:57.135Z,18.50
2022-08-09T22:42:22.415Z,18.50
2022-08-09T22:48:06.244Z,18.40
2022-08-09T22:48:12.378Z,18.40
2022-08-09T22:50:34.398Z,18.30
2022-08-09T22:53:04.340Z,18.20
2022-08-09T22:56:29.125Z,18.20
2022-08-09T22:58:32.472Z,18.20
2022-08-09T23:01:04.242Z,18.10
2022-08-09T23:04:04.133Z,18.00
2022-08-09T23:06:48.438Z,17.90
2022-08-09T23:09:16.772Z,17.80
2022-08-09T23:11:46.203Z,17.80
2022-08-09T23:14:17.537Z,17.70
2022-08-09T23:16:59.092Z,17.70
2022-08-09T23:19:29.228Z,17.70
2022-08-09T23:22:18.123Z,17.70
2022-08-09T23:24:48.693Z,17.70
2022-08-09T23:27:17.719Z,17.60
2022-08-09T23:29:46.532Z,17.50
2022-08-09T23:32:15.375Z,17.40
2022-08-09T23:34:45.905Z,17.40
2022-08-09T23:37:14.986Z,17.30
2022-08-09T23:39:46.621Z,17.30
2022-08-09T23:42:15.860Z,17.20
2022-08-09T23:44:44.851Z,17.20
2022-08-09T23:47:13.755Z,17.20
2022-08-09T23:49:42.545Z,17.20
2022-08-09T23:52:12.917Z,17.10
2022-08-09T23:54:45.390Z,17.10
2022-08-09T23:57:15.135Z,17.00
